sensor_id;sensor_type;location;lat;lon;timestamp;pressure;altitude;pressure_sealevel;temperature;humidity
50682;BME280;36779;52.168;20.878;2023-04-10T00:01:20;101297.61;;;6.36;66.44
50682;BME280;36779;52.168;20.878;2023-04-10T00:03:48;101295.17;;;6.36;66.64
50682;BME280;36779;52.168;20.878;2023-04-10T00:06:19;101294.34;;;6.38;66.63
50682;BME280;36779;52.168;20.878;2023-04-10T00:08:47;101295.63;;;6.27;66.48
50682;BME280;36779;52.168;20.878;2023-04-10T00:11:20;101296.27;;;6.13;66.38
50682;BME280;36779;52.168;20.878;2023-04-10T00:13:48;101296.11;;;6.01;66.43
50682;BME280;36779;52.168;20.878;2023-04-10T00:16:19;101299.87;;;5.96;66.48
50682;BME280;36779;52.168;20.878;2023-04-10T00:18:47;101300.58;;;5.91;66.47
50682;BME280;36779;52.168;20.878;2023-04-10T00:21:17;101301.84;;;5.82;66.48
50682;BME280;36779;52.168;20.878;2023-04-10T00:23:45;101301.42;;;5.76;66.56
50682;BME280;36779;52.168;20.878;2023-04-10T00:28:58;101305.16;;;5.60;66.69
50682;BME280;36779;52.168;20.878;2023-04-10T00:31:29;101303.16;;;5.59;66.73
50682;BME280;36779;52.168;20.878;2023-04-10T00:33:56;101304.48;;;5.55;66.70
50682;BME280;36779;52.168;20.878;2023-04-10T00:36:24;101299.34;;;5.50;66.68
50682;BME280;36779;52.168;20.878;2023-04-10T00:38:53;101299.09;;;5.47;66.71
50682;BME280;36779;52.168;20.878;2023-04-10T00:41:20;101300.17;;;5.43;66.59
50682;BME280;36779;52.168;20.878;2023-04-10T00:43:53;101300.62;;;5.42;66.79
50682;BME280;36779;52.168;20.878;2023-04-10T00:46:22;101294.30;;;5.47;66.99
50682;BME280;36779;52.168;20.878;2023-04-10T00:48:50;101296.14;;;5.54;67.07
50682;BME280;36779;52.168;20.878;2023-04-10T00:51:19;101291.66;;;5.52;66.86
50682;BME280;36779;52.168;20.878;2023-04-10T00:53:47;101294.52;;;5.52;67.04
50682;BME280;36779;52.168;20.878;2023-04-10T00:56:21;101299.98;;;5.61;67.26
50682;BME280;36779;52.168;20.878;2023-04-10T00:58:50;101303.41;;;5.68;67.24
50682;BME280;36779;52.168;20.878;2023-04-10T01:01:21;101308.68;;;5.71;67.29
50682;BME280;36779;52.168;20.878;2023-04-10T01:03:49;101309.23;;;5.70;67.06
50682;BME280;36779;52.168;20.878;2023-04-10T01:06:24;101310.27;;;5.71;67.31
50682;BME280;36779;52.168;20.878;2023-04-10T01:08:54;101312.33;;;5.69;67.07
50682;BME280;36779;52.168;20.878;2023-04-10T01:11:32;101308.98;;;5.69;67.36
50682;BME280;36779;52.168;20.878;2023-04-10T01:14:10;101316.60;;;5.81;67.78
50682;BME280;36779;52.168;20.878;2023-04-10T01:16:39;101317.02;;;5.90;67.70
50682;BME280;36779;52.168;20.878;2023-04-10T01:19:17;101320.71;;;5.93;67.75
50682;BME280;36779;52.168;20.878;2023-04-10T01:21:51;101315.08;;;5.93;67.76
50682;BME280;36779;52.168;20.878;2023-04-10T01:24:23;101310.92;;;5.88;67.50
50682;BME280;36779;52.168;20.878;2023-04-10T01:27:03;101310.15;;;5.75;67.19
50682;BME280;36779;52.168;20.878;2023-04-10T01:29:36;101315.07;;;5.55;67.00
50682;BME280;36779;52.168;20.878;2023-04-10T01:32:12;101313.69;;;5.39;66.95
50682;BME280;36779;52.168;20.878;2023-04-10T01:34:42;101306.80;;;5.24;66.90
50682;BME280;36779;52.168;20.878;2023-04-10T01:37:11;101306.66;;;5.13;66.89
50682;BME280;36779;52.168;20.878;2023-04-10T01:39:40;101301.54;;;5.03;66.93
50682;BME280;36779;52.168;20.878;2023-04-10T01:42:09;101300.29;;;4.93;66.94
50682;BME280;36779;52.168;20.878;2023-04-10T01:44:41;101299.90;;;4.85;66.95
50682;BME280;36779;52.168;20.878;2023-04-10T01:47:11;101308.48;;;4.76;66.92
50682;BME280;36779;52.168;20.878;2023-04-10T01:49:41;101310.45;;;4.64;66.89
50682;BME280;36779;52.168;20.878;2023-04-10T01:52:10;101308.29;;;4.58;66.96
50682;BME280;36779;52.168;20.878;2023-04-10T01:54:39;101308.70;;;4.57;67.11
50682;BME280;36779;52.168;20.878;2023-04-10T01:57:08;101308.00;;;4.62;67.19
50682;BME280;36779;52.168;20.878;2023-04-10T01:59:49;101306.92;;;4.67;67.40
50682;BME280;36779;52.168;20.878;2023-04-10T02:02:19;101309.35;;;4.71;67.31
50682;BME280;36779;52.168;20.878;2023-04-10T02:04:50;101306.67;;;4.66;67.17
50682;BME280;36779;52.168;20.878;2023-04-10T02:07:22;101308.13;;;4.65;67.29
50682;BME280;36779;52.168;20.878;2023-04-10T02:09:54;101307.45;;;4.65;67.32
50682;BME280;36779;52.168;20.878;2023-04-10T02:12:27;101309.88;;;4.60;67.11
50682;BME280;36779;52.168;20.878;2023-04-10T02:14:56;101307.79;;;4.52;67.08
50682;BME280;36779;52.168;20.878;2023-04-10T02:17:28;101308.80;;;4.44;67.02
50682;BME280;36779;52.168;20.878;2023-04-10T02:19:56;101307.66;;;4.40;67.18
50682;BME280;36779;52.168;20.878;2023-04-10T02:22:33;101311.52;;;4.37;67.12
50682;BME280;36779;52.168;20.878;2023-04-10T02:25:04;101311.65;;;4.36;67.16
50682;BME280;36779;52.168;20.878;2023-04-10T02:27:32;101312.82;;;4.37;67.34
50682;BME280;36779;52.168;20.878;2023-04-10T02:30:02;101311.45;;;4.47;67.68
50682;BME280;36779;52.168;20.878;2023-04-10T02:32:32;101317.65;;;4.52;67.41
50682;BME280;36779;52.168;20.878;2023-04-10T02:35:02;101322.13;;;4.47;67.47
50682;BME280;36779;52.168;20.878;2023-04-10T02:37:37;101319.35;;;4.52;67.78
50682;BME280;36779;52.168;20.878;2023-04-10T02:40:07;101322.41;;;4.60;67.82
50682;BME280;36779;52.168;20.878;2023-04-10T02:42:48;101322.63;;;4.56;67.70
50682;BME280;36779;52.168;20.878;2023-04-10T02:45:16;101323.84;;;4.59;67.97
50682;BME280;36779;52.168;20.878;2023-04-10T02:47:44;101323.08;;;4.63;68.09
50682;BME280;36779;52.168;20.878;2023-04-10T02:50:13;101319.00;;;4.60;67.96
50682;BME280;36779;52.168;20.878;2023-04-10T02:52:44;101315.07;;;4.61;68.00
50682;BME280;36779;52.168;20.878;2023-04-10T02:55:12;101317.98;;;4.60;68.04
50682;BME280;36779;52.168;20.878;2023-04-10T02:57:41;101315.14;;;4.60;68.04
50682;BME280;36779;52.168;20.878;2023-04-10T03:00:10;101311.73;;;4.61;68.11
50682;BME280;36779;52.168;20.878;2023-04-10T03:03:14;101313.39;;;4.63;68.05
50682;BME280;36779;52.168;20.878;2023-04-10T03:05:47;101314.73;;;4.59;67.81
50682;BME280;36779;52.168;20.878;2023-04-10T03:08:19;101313.82;;;4.45;67.50
50682;BME280;36779;52.168;20.878;2023-04-10T03:10:47;101312.65;;;4.36;67.59
50682;BME280;36779;52.168;20.878;2023-04-10T03:13:17;101312.42;;;4.40;67.88
50682;BME280;36779;52.168;20.878;2023-04-10T03:15:45;101316.20;;;4.49;68.18
50682;BME280;36779;52.168;20.878;2023-04-10T03:18:13;101313.52;;;4.55;68.13
50682;BME280;36779;52.168;20.878;2023-04-10T03:20:42;101313.95;;;4.52;67.81
50682;BME280;36779;52.168;20.878;2023-04-10T03:23:12;101310.61;;;4.46;67.88
50682;BME280;36779;52.168;20.878;2023-04-10T03:25:40;101314.22;;;4.47;67.98
50682;BME280;36779;52.168;20.878;2023-04-10T03:28:11;101313.16;;;4.42;67.81
50682;BME280;36779;52.168;20.878;2023-04-10T03:30:39;101311.05;;;4.37;67.85
50682;BME280;36779;52.168;20.878;2023-04-10T03:33:08;101309.91;;;4.38;68.05
50682;BME280;36779;52.168;20.878;2023-04-10T03:35:37;101308.73;;;4.43;68.28
50682;BME280;36779;52.168;20.878;2023-04-10T03:38:09;101307.19;;;4.44;68.36
50682;BME280;36779;52.168;20.878;2023-04-10T03:40:38;101308.07;;;4.42;68.11
50682;BME280;36779;52.168;20.878;2023-04-10T03:43:10;101307.52;;;4.26;67.85
50682;BME280;36779;52.168;20.878;2023-04-10T03:45:38;101310.13;;;4.10;67.69
50682;BME280;36779;52.168;20.878;2023-04-10T03:48:18;101315.75;;;3.96;67.61
50682;BME280;36779;52.168;20.878;2023-04-10T03:50:53;101310.23;;;3.86;67.86
50682;BME280;36779;52.168;20.878;2023-04-10T03:53:20;101309.98;;;3.82;67.88
50682;BME280;36779;52.168;20.878;2023-04-10T03:55:49;101309.45;;;3.82;67.97
50682;BME280;36779;52.168;20.878;2023-04-10T03:58:18;101310.15;;;3.82;68.09
50682;BME280;36779;52.168;20.878;2023-04-10T04:00:47;101309.55;;;3.83;68.13
50682;BME280;36779;52.168;20.878;2023-04-10T04:03:42;101312.77;;;3.85;68.16
50682;BME280;36779;52.168;20.878;2023-04-10T04:06:39;101321.48;;;3.89;68.23
50682;BME280;36779;52.168;20.878;2023-04-10T04:09:42;101325.09;;;3.90;68.04
50682;BME280;36779;52.168;20.878;2023-04-10T04:12:33;101327.88;;;3.91;68.18
50682;BME280;36779;52.168;20.878;2023-04-10T04:15:24;101328.07;;;3.99;68.41
50682;BME280;36779;52.168;20.878;2023-04-10T04:18:17;101330.59;;;4.07;68.26
50682;BME280;36779;52.168;20.878;2023-04-10T04:20:53;101331.94;;;4.16;68.56
50682;BME280;36779;52.168;20.878;2023-04-10T04:23:41;101332.40;;;4.28;68.41
50682;BME280;36779;52.168;20.878;2023-04-10T04:26:28;101336.31;;;4.27;68.21
50682;BME280;36779;52.168;20.878;2023-04-10T04:29:13;101342.91;;;4.26;68.19
50682;BME280;36779;52.168;20.878;2023-04-10T04:31:48;101346.77;;;4.37;68.61
50682;BME280;36779;52.168;20.878;2023-04-10T04:34:35;101347.64;;;4.59;68.89
50682;BME280;36779;52.168;20.878;2023-04-10T04:37:10;101348.06;;;4.74;68.78
50682;BME280;36779;52.168;20.878;2023-04-10T04:40:01;101352.83;;;4.79;68.49
50682;BME280;36779;52.168;20.878;2023-04-10T04:42:58;101353.45;;;4.80;68.44
50682;BME280;36779;52.168;20.878;2023-04-10T04:45:44;101353.06;;;4.94;68.72
50682;BME280;36779;52.168;20.878;2023-04-10T04:48:36;101358.77;;;5.04;68.57
50682;BME280;36779;52.168;20.878;2023-04-10T04:51:20;101360.53;;;5.01;68.35
50682;BME280;36779;52.168;20.878;2023-04-10T04:53:54;101362.84;;;5.01;68.40
50682;BME280;36779;52.168;20.878;2023-04-10T04:59:22;101362.90;;;5.02;68.45
50682;BME280;36779;52.168;20.878;2023-04-10T05:02:13;101362.77;;;5.04;68.36
50682;BME280;36779;52.168;20.878;2023-04-10T05:04:55;101363.68;;;5.06;68.36
50682;BME280;36779;52.168;20.878;2023-04-10T05:07:44;101365.27;;;5.14;68.58
50682;BME280;36779;52.168;20.878;2023-04-10T05:10:35;101366.34;;;5.25;68.63
50682;BME280;36779;52.168;20.878;2023-04-10T05:13:20;101370.22;;;5.37;68.81
50682;BME280;36779;52.168;20.878;2023-04-10T05:16:07;101372.72;;;5.53;68.89
50682;BME280;36779;52.168;20.878;2023-04-10T05:18:59;101372.58;;;5.65;68.89
50682;BME280;36779;52.168;20.878;2023-04-10T05:21:47;101368.73;;;5.82;69.03
50682;BME280;36779;52.168;20.878;2023-04-10T05:24:26;101366.66;;;6.02;68.97
50682;BME280;36779;52.168;20.878;2023-04-10T05:27:12;101372.34;;;6.21;69.04
50682;BME280;36779;52.168;20.878;2023-04-10T05:29:58;101370.98;;;6.45;69.14
50682;BME280;36779;52.168;20.878;2023-04-10T05:32:56;101376.30;;;6.66;69.12
50682;BME280;36779;52.168;20.878;2023-04-10T05:35:44;101375.99;;;6.85;69.06
50682;BME280;36779;52.168;20.878;2023-04-10T05:38:26;101378.41;;;7.05;69.01
50682;BME280;36779;52.168;20.878;2023-04-10T05:41:20;101380.09;;;7.36;69.43
50682;BME280;36779;52.168;20.878;2023-04-10T05:44:01;101376.67;;;7.94;70.16
50682;BME280;36779;52.168;20.878;2023-04-10T05:46:52;101375.61;;;8.62;70.36
50682;BME280;36779;52.168;20.878;2023-04-10T05:49:22;101374.98;;;9.09;70.16
50682;BME280;36779;52.168;20.878;2023-04-10T05:52:08;101374.91;;;9.12;69.20
50682;BME280;36779;52.168;20.878;2023-04-10T05:54:42;101372.23;;;9.01;68.92
50682;BME280;36779;52.168;20.878;2023-04-10T05:57:28;101376.58;;;8.94;68.78
50682;BME280;36779;52.168;20.878;2023-04-10T06:00:18;101374.67;;;8.81;68.54
50682;BME280;36779;52.168;20.878;2023-04-10T06:03:07;101379.77;;;8.66;68.50
50682;BME280;36779;52.168;20.878;2023-04-10T06:05:47;101384.08;;;8.55;68.47
50682;BME280;36779;52.168;20.878;2023-04-10T06:08:17;101384.73;;;8.51;68.82
50682;BME280;36779;52.168;20.878;2023-04-10T06:10:46;101390.15;;;8.52;68.80
50682;BME280;36779;52.168;20.878;2023-04-10T06:13:20;101389.89;;;8.50;68.77
50682;BME280;36779;52.168;20.878;2023-04-10T06:15:52;101388.88;;;8.50;68.90
50682;BME280;36779;52.168;20.878;2023-04-10T06:18:21;101394.02;;;8.58;69.15
50682;BME280;36779;52.168;20.878;2023-04-10T06:20:52;101392.14;;;8.90;69.84
50682;BME280;36779;52.168;20.878;2023-04-10T06:23:20;101393.02;;;9.60;70.60
50682;BME280;36779;52.168;20.878;2023-04-10T06:25:49;101389.21;;;10.18;70.54
50682;BME280;36779;52.168;20.878;2023-04-10T06:28:18;101386.41;;;10.68;70.55
50682;BME280;36779;52.168;20.878;2023-04-10T06:30:47;101388.05;;;11.27;70.70
50682;BME280;36779;52.168;20.878;2023-04-10T06:33:18;101386.81;;;11.84;70.48
50682;BME280;36779;52.168;20.878;2023-04-10T06:35:47;101381.10;;;12.52;70.78
50682;BME280;36779;52.168;20.878;2023-04-10T06:38:17;101378.50;;;13.27;70.66
50682;BME280;36779;52.168;20.878;2023-04-10T06:40:46;101381.73;;;13.93;70.79
50682;BME280;36779;52.168;20.878;2023-04-10T06:43:17;101380.45;;;14.43;70.07
50682;BME280;36779;52.168;20.878;2023-04-10T06:45:47;101382.82;;;14.74;69.71
50682;BME280;36779;52.168;20.878;2023-04-10T06:48:18;101382.38;;;15.10;69.65
50682;BME280;36779;52.168;20.878;2023-04-10T06:50:47;101385.92;;;15.38;69.18
50682;BME280;36779;52.168;20.878;2023-04-10T06:53:17;101386.78;;;15.69;69.08
50682;BME280;36779;52.168;20.878;2023-04-10T06:55:47;101385.27;;;16.14;69.31
50682;BME280;36779;52.168;20.878;2023-04-10T06:58:16;101380.89;;;16.74;69.36
50682;BME280;36779;52.168;20.878;2023-04-10T07:00:44;101383.69;;;17.35;69.09
50682;BME280;36779;52.168;20.878;2023-04-10T07:03:16;101383.85;;;17.91;68.88
50682;BME280;36779;52.168;20.878;2023-04-10T07:05:46;101379.89;;;18.39;68.50
50682;BME280;36779;52.168;20.878;2023-04-10T07:08:18;101379.30;;;18.55;67.55
50682;BME280;36779;52.168;20.878;2023-04-10T07:10:46;101381.21;;;18.43;66.90
50682;BME280;36779;52.168;20.878;2023-04-10T07:13:14;101381.20;;;18.49;66.83
50682;BME280;36779;52.168;20.878;2023-04-10T07:15:42;101379.79;;;18.56;66.84
50682;BME280;36779;52.168;20.878;2023-04-10T07:18:10;101381.88;;;18.50;66.37
50682;BME280;36779;52.168;20.878;2023-04-10T07:20:38;101387.59;;;18.31;66.05
50682;BME280;36779;52.168;20.878;2023-04-10T07:23:06;101387.41;;;17.95;65.49
50682;BME280;36779;52.168;20.878;2023-04-10T07:25:34;101388.70;;;17.50;65.49
50682;BME280;36779;52.168;20.878;2023-04-10T07:28:03;101391.18;;;17.08;65.50
50682;BME280;36779;52.168;20.878;2023-04-10T07:30:31;101389.45;;;16.62;65.55
50682;BME280;36779;52.168;20.878;2023-04-10T07:32:59;101391.30;;;16.31;65.83
50682;BME280;36779;52.168;20.878;2023-04-10T07:35:28;101394.65;;;16.17;66.12
50682;BME280;36779;52.168;20.878;2023-04-10T07:37:57;101394.95;;;16.27;66.84
50682;BME280;36779;52.168;20.878;2023-04-10T07:40:25;101388.23;;;16.34;66.64
50682;BME280;36779;52.168;20.878;2023-04-10T07:42:53;101381.30;;;16.36;66.49
50682;BME280;36779;52.168;20.878;2023-04-10T07:45:23;101383.09;;;16.35;66.43
50682;BME280;36779;52.168;20.878;2023-04-10T07:47:51;101382.36;;;16.48;66.82
50682;BME280;36779;52.168;20.878;2023-04-10T07:50:18;101381.20;;;16.72;67.29
50682;BME280;36779;52.168;20.878;2023-04-10T07:52:47;101381.33;;;16.94;66.79
50682;BME280;36779;52.168;20.878;2023-04-10T07:55:16;101383.53;;;17.12;67.12
50682;BME280;36779;52.168;20.878;2023-04-10T07:57:43;101382.98;;;17.42;67.00
50682;BME280;36779;52.168;20.878;2023-04-10T08:00:14;101386.66;;;17.55;66.48
50682;BME280;36779;52.168;20.878;2023-04-10T08:02:43;101384.38;;;17.71;66.35
50682;BME280;36779;52.168;20.878;2023-04-10T08:05:14;101382.41;;;17.96;66.24
50682;BME280;36779;52.168;20.878;2023-04-10T08:07:42;101378.05;;;18.19;66.15
50682;BME280;36779;52.168;20.878;2023-04-10T08:10:15;101380.95;;;18.23;65.53
50682;BME280;36779;52.168;20.878;2023-04-10T08:12:43;101382.14;;;18.27;65.72
50682;BME280;36779;52.168;20.878;2023-04-10T08:15:11;101380.13;;;18.34;65.47
50682;BME280;36779;52.168;20.878;2023-04-10T08:17:39;101378.77;;;18.33;65.15
50682;BME280;36779;52.168;20.878;2023-04-10T08:20:11;101379.73;;;18.45;65.31
50682;BME280;36779;52.168;20.878;2023-04-10T08:22:39;101376.51;;;18.49;64.99
50682;BME280;36779;52.168;20.878;2023-04-10T08:25:08;101375.23;;;18.56;64.99
50682;BME280;36779;52.168;20.878;2023-04-10T08:27:39;101376.10;;;18.87;65.33
50682;BME280;36779;52.168;20.878;2023-04-10T08:30:09;101376.65;;;19.04;64.79
50682;BME280;36779;52.168;20.878;2023-04-10T08:32:39;101377.95;;;19.04;64.19
50682;BME280;36779;52.168;20.878;2023-04-10T08:35:17;101378.70;;;18.95;63.91
50682;BME280;36779;52.168;20.878;2023-04-10T08:37:45;101376.11;;;18.98;64.11
50682;BME280;36779;52.168;20.878;2023-04-10T08:40:29;101374.74;;;19.08;63.90
50682;BME280;36779;52.168;20.878;2023-04-10T08:42:57;101374.30;;;19.24;64.01
50682;BME280;36779;52.168;20.878;2023-04-10T08:45:25;101374.70;;;19.36;64.03
50682;BME280;36779;52.168;20.878;2023-04-10T08:47:56;101379.30;;;19.51;63.74
50682;BME280;36779;52.168;20.878;2023-04-10T08:50:25;101375.83;;;19.56;63.68
50682;BME280;36779;52.168;20.878;2023-04-10T08:52:55;101375.58;;;19.65;63.92
50682;BME280;36779;52.168;20.878;2023-04-10T08:55:26;101377.67;;;19.78;63.58
50682;BME280;36779;52.168;20.878;2023-04-10T08:57:55;101371.48;;;19.80;63.50
50682;BME280;36779;52.168;20.878;2023-04-10T09:00:28;101370.46;;;19.70;63.25
50682;BME280;36779;52.168;20.878;2023-04-10T09:02:58;101370.10;;;19.57;62.84
50682;BME280;36779;52.168;20.878;2023-04-10T09:05:27;101367.69;;;19.35;62.82
50682;BME280;36779;52.168;20.878;2023-04-10T09:07:56;101364.72;;;19.33;63.35
50682;BME280;36779;52.168;20.878;2023-04-10T09:10:24;101366.09;;;19.32;63.33
50682;BME280;36779;52.168;20.878;2023-04-10T09:12:52;101365.15;;;19.24;63.39
50682;BME280;36779;52.168;20.878;2023-04-10T09:15:20;101361.22;;;19.22;63.37
50682;BME280;36779;52.168;20.878;2023-04-10T09:17:56;101357.88;;;19.20;63.73
50682;BME280;36779;52.168;20.878;2023-04-10T09:20:25;101355.98;;;19.23;63.51
50682;BME280;36779;52.168;20.878;2023-04-10T09:22:54;101353.71;;;19.20;63.56
50682;BME280;36779;52.168;20.878;2023-04-10T09:25:28;101350.02;;;19.25;63.58
50682;BME280;36779;52.168;20.878;2023-04-10T09:27:59;101346.27;;;19.36;63.75
50682;BME280;36779;52.168;20.878;2023-04-10T09:30:34;101347.21;;;19.39;63.37
50682;BME280;36779;52.168;20.878;2023-04-10T09:33:11;101347.13;;;19.28;63.12
50682;BME280;36779;52.168;20.878;2023-04-10T09:35:48;101344.02;;;19.24;63.12
50682;BME280;36779;52.168;20.878;2023-04-10T09:38:17;101339.77;;;19.27;63.20
50682;BME280;36779;52.168;20.878;2023-04-10T09:40:46;101337.16;;;19.23;62.71
50682;BME280;36779;52.168;20.878;2023-04-10T09:43:21;101336.31;;;19.07;62.68
50682;BME280;36779;52.168;20.878;2023-04-10T09:45:52;101332.95;;;18.98;62.58
50682;BME280;36779;52.168;20.878;2023-04-10T09:48:21;101327.46;;;18.87;62.67
50682;BME280;36779;52.168;20.878;2023-04-10T09:50:49;101327.70;;;19.01;63.21
50682;BME280;36779;52.168;20.878;2023-04-10T09:53:19;101325.77;;;19.30;63.46
50682;BME280;36779;52.168;20.878;2023-04-10T09:55:48;101325.55;;;19.35;62.95
50682;BME280;36779;52.168;20.878;2023-04-10T09:58:17;101321.31;;;19.41;62.92
50682;BME280;36779;52.168;20.878;2023-04-10T10:00:48;101316.85;;;19.45;62.76
50682;BME280;36779;52.168;20.878;2023-04-10T10:03:17;101310.44;;;19.58;62.92
50682;BME280;36779;52.168;20.878;2023-04-10T10:05:48;101311.48;;;19.68;62.72
50682;BME280;36779;52.168;20.878;2023-04-10T10:08:17;101308.02;;;19.80;62.64
50682;BME280;36779;52.168;20.878;2023-04-10T10:10:46;101307.88;;;19.85;62.55
50682;BME280;36779;52.168;20.878;2023-04-10T10:13:19;101306.84;;;19.77;61.90
50682;BME280;36779;52.168;20.878;2023-04-10T10:15:53;101298.84;;;19.60;61.92
50682;BME280;36779;52.168;20.878;2023-04-10T10:18:26;101297.30;;;19.58;61.92
50682;BME280;36779;52.168;20.878;2023-04-10T10:21:00;101289.95;;;19.48;61.52
50682;BME280;36779;52.168;20.878;2023-04-10T10:23:30;101294.23;;;19.20;61.07
50682;BME280;36779;52.168;20.878;2023-04-10T10:26:00;101291.20;;;18.92;61.38
50682;BME280;36779;52.168;20.878;2023-04-10T10:28:32;101287.23;;;18.93;61.64
50682;BME280;36779;52.168;20.878;2023-04-10T10:31:01;101280.38;;;18.99;61.66
50682;BME280;36779;52.168;20.878;2023-04-10T10:33:29;101277.58;;;19.01;61.54
50682;BME280;36779;52.168;20.878;2023-04-10T10:35:58;101280.63;;;18.88;61.09
50682;BME280;36779;52.168;20.878;2023-04-10T10:38:26;101275.45;;;18.73;61.20
50682;BME280;36779;52.168;20.878;2023-04-10T10:40:58;101270.68;;;18.81;61.66
50682;BME280;36779;52.168;20.878;2023-04-10T10:43:32;101267.59;;;19.02;62.05
50682;BME280;36779;52.168;20.878;2023-04-10T10:46:06;101267.16;;;19.17;61.63
50682;BME280;36779;52.168;20.878;2023-04-10T10:48:39;101265.45;;;19.26;61.64
50682;BME280;36779;52.168;20.878;2023-04-10T10:51:07;101266.95;;;19.35;61.44
50682;BME280;36779;52.168;20.878;2023-04-10T10:53:36;101263.62;;;19.41;61.27
50682;BME280;36779;52.168;20.878;2023-04-10T10:58:54;101258.84;;;19.75;61.42
50682;BME280;36779;52.168;20.878;2023-04-10T11:01:23;101255.15;;;19.99;61.62
50682;BME280;36779;52.168;20.878;2023-04-10T11:03:54;101256.33;;;20.16;61.12
50682;BME280;36779;52.168;20.878;2023-04-10T11:06:47;101254.41;;;20.06;60.39
50682;BME280;36779;52.168;20.878;2023-04-10T11:11:57;101256.56;;;19.72;60.17
50682;BME280;36779;52.168;20.878;2023-04-10T11:14:28;101250.70;;;19.45;59.70
50682;BME280;36779;52.168;20.878;2023-04-10T11:16:57;101254.11;;;19.10;59.58
50682;BME280;36779;52.168;20.878;2023-04-10T11:19:28;101249.85;;;18.84;59.65
50682;BME280;36779;52.168;20.878;2023-04-10T11:22:05;101245.03;;;18.75;60.33
50682;BME280;36779;52.168;20.878;2023-04-10T11:32:53;101219.94;;;19.40;60.58
50682;BME280;36779;52.168;20.878;2023-04-10T11:35:26;101222.71;;;19.29;60.03
50682;BME280;36779;52.168;20.878;2023-04-10T11:38:11;101222.47;;;19.04;59.62
50682;BME280;36779;52.168;20.878;2023-04-10T11:40:55;101223.77;;;18.77;59.58
50682;BME280;36779;52.168;20.878;2023-04-10T11:43:24;101223.08;;;18.52;59.47
50682;BME280;36779;52.168;20.878;2023-04-10T11:46:01;101214.67;;;18.29;59.56
50682;BME280;36779;52.168;20.878;2023-04-10T11:48:30;101207.54;;;18.09;59.45
50682;BME280;36779;52.168;20.878;2023-04-10T11:50:58;101205.42;;;17.87;59.29
50682;BME280;36779;52.168;20.878;2023-04-10T11:53:33;101201.13;;;17.76;59.78
50682;BME280;36779;52.168;20.878;2023-04-10T11:56:01;101200.29;;;17.92;60.36
50682;BME280;36779;52.168;20.878;2023-04-10T11:58:30;101195.64;;;18.16;60.67
50682;BME280;36779;52.168;20.878;2023-04-10T12:01:02;101190.69;;;18.34;60.53
50682;BME280;36779;52.168;20.878;2023-04-10T12:03:34;101187.44;;;18.52;60.63
50682;BME280;36779;52.168;20.878;2023-04-10T12:06:06;101179.77;;;18.69;60.72
50682;BME280;36779;52.168;20.878;2023-04-10T12:08:48;101177.22;;;18.77;60.33
50682;BME280;36779;52.168;20.878;2023-04-10T12:11:23;101178.34;;;18.65;60.00
50682;BME280;36779;52.168;20.878;2023-04-10T12:13:52;101173.52;;;18.57;60.07
50682;BME280;36779;52.168;20.878;2023-04-10T12:16:23;101169.84;;;18.59;59.96
50682;BME280;36779;52.168;20.878;2023-04-10T12:18:52;101161.15;;;18.64;60.21
50682;BME280;36779;52.168;20.878;2023-04-10T12:21:21;101158.17;;;18.60;59.59
50682;BME280;36779;52.168;20.878;2023-04-10T12:23:49;101159.41;;;18.34;59.20
50682;BME280;36779;52.168;20.878;2023-04-10T12:26:29;101152.71;;;18.07;59.03
50682;BME280;36779;52.168;20.878;2023-04-10T12:29:00;101147.40;;;17.82;59.13
50682;BME280;36779;52.168;20.878;2023-04-10T12:31:31;101141.39;;;17.69;59.18
50682;BME280;36779;52.168;20.878;2023-04-10T12:34:01;101144.39;;;17.67;59.33
50682;BME280;36779;52.168;20.878;2023-04-10T12:36:34;101136.48;;;17.73;59.52
50682;BME280;36779;52.168;20.878;2023-04-10T12:39:19;101136.11;;;17.80;59.73
50682;BME280;36779;52.168;20.878;2023-04-10T12:41:48;101130.34;;;17.89;59.82
50682;BME280;36779;52.168;20.878;2023-04-10T12:44:17;101121.80;;;18.02;59.95
50682;BME280;36779;52.168;20.878;2023-04-10T12:46:55;101122.50;;;18.10;59.81
50682;BME280;36779;52.168;20.878;2023-04-10T12:49:31;101125.13;;;18.12;59.65
50682;BME280;36779;52.168;20.878;2023-04-10T12:51:59;101125.98;;;18.09;59.51
50682;BME280;36779;52.168;20.878;2023-04-10T12:54:41;101121.83;;;18.04;59.35
50682;BME280;36779;52.168;20.878;2023-04-10T12:57:09;101118.14;;;17.96;59.18
50682;BME280;36779;52.168;20.878;2023-04-10T12:59:52;101114.30;;;17.86;59.15
50682;BME280;36779;52.168;20.878;2023-04-10T13:02:21;101110.80;;;17.84;59.29
50682;BME280;36779;52.168;20.878;2023-04-10T13:04:54;101107.74;;;17.90;59.37
50682;BME280;36779;52.168;20.878;2023-04-10T13:07:25;101106.90;;;17.92;59.38
50682;BME280;36779;52.168;20.878;2023-04-10T13:09:54;101101.80;;;17.99;59.40
50682;BME280;36779;52.168;20.878;2023-04-10T13:12:22;101094.73;;;18.01;59.39
50682;BME280;36779;52.168;20.878;2023-04-10T13:15:01;101090.05;;;18.02;59.18
50682;BME280;36779;52.168;20.878;2023-04-10T13:17:30;101088.52;;;18.04;59.09
50682;BME280;36779;52.168;20.878;2023-04-10T13:19:58;101088.67;;;18.11;59.11
50682;BME280;36779;52.168;20.878;2023-04-10T13:22:26;101087.98;;;18.12;58.90
50682;BME280;36779;52.168;20.878;2023-04-10T13:24:54;101089.52;;;18.04;58.72
50682;BME280;36779;52.168;20.878;2023-04-10T13:27:22;101085.98;;;17.88;58.45
50682;BME280;36779;52.168;20.878;2023-04-10T13:29:50;101086.02;;;17.82;58.68
50682;BME280;36779;52.168;20.878;2023-04-10T13:32:19;101080.41;;;17.77;58.62
50682;BME280;36779;52.168;20.878;2023-04-10T13:34:47;101080.13;;;17.76;58.66